sensor_id;sensor_type;location;lat;lon;timestamp;P1;durP1;ratioP1;P2;durP2;ratioP2
41897;SDS011;27576;53.366;-1.498;2023-06-19T00:00:38;6.28;;;5.68;;
41897;SDS011;27576;53.366;-1.498;2023-06-19T00:03:04;10.35;;;6.88;;
41897;SDS011;27576;53.366;-1.498;2023-06-19T00:05:30;6.97;;;6.13;;
41897;SDS011;27576;53.366;-1.498;2023-06-19T00:07:55;10.80;;;7.38;;
41897;SDS011;27576;53.366;-1.498;2023-06-19T00:10:21;8.88;;;6.80;;
41897;SDS011;27576;53.366;-1.498;2023-06-19T00:12:46;7.93;;;7.07;;
41897;SDS011;27576;53.366;-1.498;2023-06-19T00:15:12;8.88;;;6.57;;
41897;SDS011;27576;53.366;-1.498;2023-06-19T00:17:37;7.50;;;6.65;;
41897;SDS011;27576;53.366;-1.498;2023-06-19T00:20:03;7.97;;;6.25;;
41897;SDS011;27576;53.366;-1.498;2023-06-19T00:22:30;7.40;;;6.43;;
41897;SDS011;27576;53.366;-1.498;2023-06-19T00:24:56;7.72;;;6.72;;
41897;SDS011;27576;53.366;-1.498;2023-06-19T00:27:21;8.88;;;7.97;;
41897;SDS011;27576;53.366;-1.498;2023-06-19T00:29:47;9.80;;;6.95;;
41897;SDS011;27576;53.366;-1.498;2023-06-19T00:32:12;9.48;;;8.23;;
41897;SDS011;27576;53.366;-1.498;2023-06-19T00:34:38;8.90;;;7.57;;
41897;SDS011;27576;53.366;-1.498;2023-06-19T00:37:03;7.50;;;6.72;;
41897;SDS011;27576;53.366;-1.498;2023-06-19T00:39:29;9.80;;;8.27;;
41897;SDS011;27576;53.366;-1.498;2023-06-19T00:45:16;15.50;;;8.48;;
41897;SDS011;27576;53.366;-1.498;2023-06-19T00:47:42;8.45;;;7.55;;
41897;SDS011;27576;53.366;-1.498;2023-06-19T00:50:07;10.32;;;6.63;;
41897;SDS011;27576;53.366;-1.498;2023-06-19T00:52:33;9.95;;;8.13;;
41897;SDS011;27576;53.366;-1.498;2023-06-19T00:54:58;8.45;;;7.50;;
41897;SDS011;27576;53.366;-1.498;2023-06-19T00:57:24;10.05;;;7.72;;
41897;SDS011;27576;53.366;-1.498;2023-06-19T00:59:50;8.00;;;7.20;;
41897;SDS011;27576;53.366;-1.498;2023-06-19T01:02:18;11.35;;;9.13;;
41897;SDS011;27576;53.366;-1.498;2023-06-19T01:04:48;12.00;;;8.77;;
41897;SDS011;27576;53.366;-1.498;2023-06-19T01:07:14;9.85;;;8.63;;
41897;SDS011;27576;53.366;-1.498;2023-06-19T01:09:50;8.93;;;8.05;;
41897;SDS011;27576;53.366;-1.498;2023-06-19T01:12:19;9.77;;;8.75;;
41897;SDS011;27576;53.366;-1.498;2023-06-19T01:17:22;11.25;;;7.80;;
41897;SDS011;27576;53.366;-1.498;2023-06-19T01:19:48;9.15;;;8.25;;
41897;SDS011;27576;53.366;-1.498;2023-06-19T01:22:29;11.73;;;10.23;;
41897;SDS011;27576;53.366;-1.498;2023-06-19T01:24:55;13.55;;;9.40;;
41897;SDS011;27576;53.366;-1.498;2023-06-19T01:27:21;10.45;;;9.38;;
41897;SDS011;27576;53.366;-1.498;2023-06-19T01:29:47;12.57;;;10.18;;
41897;SDS011;27576;53.366;-1.498;2023-06-19T01:32:15;13.35;;;10.63;;
41897;SDS011;27576;53.366;-1.498;2023-06-19T01:34:54;17.38;;;12.02;;
41897;SDS011;27576;53.366;-1.498;2023-06-19T01:37:22;14.20;;;12.68;;
41897;SDS011;27576;53.366;-1.498;2023-06-19T01:39:52;15.27;;;12.43;;
41897;SDS011;27576;53.366;-1.498;2023-06-19T01:42:19;13.57;;;12.02;;
41897;SDS011;27576;53.366;-1.498;2023-06-19T01:44:45;13.98;;;12.27;;
41897;SDS011;27576;53.366;-1.498;2023-06-19T01:47:11;13.50;;;11.70;;
41897;SDS011;27576;53.366;-1.498;2023-06-19T01:49:37;16.73;;;13.88;;
41897;SDS011;27576;53.366;-1.498;2023-06-19T01:52:03;14.18;;;12.63;;
41897;SDS011;27576;53.366;-1.498;2023-06-19T01:54:29;15.05;;;11.95;;
41897;SDS011;27576;53.366;-1.498;2023-06-19T01:56:54;13.30;;;11.23;;
41897;SDS011;27576;53.366;-1.498;2023-06-19T01:59:19;12.35;;;11.07;;
41897;SDS011;27576;53.366;-1.498;2023-06-19T02:01:46;11.35;;;9.55;;
41897;SDS011;27576;53.366;-1.498;2023-06-19T02:04:11;11.18;;;10.00;;
41897;SDS011;27576;53.366;-1.498;2023-06-19T02:06:36;11.02;;;9.90;;
41897;SDS011;27576;53.366;-1.498;2023-06-19T02:09:02;11.63;;;10.43;;
41897;SDS011;27576;53.366;-1.498;2023-06-19T02:11:27;11.65;;;10.55;;
41897;SDS011;27576;53.366;-1.498;2023-06-19T02:13:52;12.90;;;11.63;;
41897;SDS011;27576;53.366;-1.498;2023-06-19T02:16:18;13.05;;;11.20;;
41897;SDS011;27576;53.366;-1.498;2023-06-19T02:18:43;15.27;;;11.55;;
41897;SDS011;27576;53.366;-1.498;2023-06-19T02:21:08;13.48;;;11.60;;
41897;SDS011;27576;53.366;-1.498;2023-06-19T02:23:34;15.52;;;13.50;;
41897;SDS011;27576;53.366;-1.498;2023-06-19T02:25:59;12.85;;;11.52;;
41897;SDS011;27576;53.366;-1.498;2023-06-19T02:28:25;11.73;;;10.63;;
41897;SDS011;27576;53.366;-1.498;2023-06-19T02:30:50;13.82;;;12.43;;
41897;SDS011;27576;53.366;-1.498;2023-06-19T02:33:17;13.93;;;12.52;;
41897;SDS011;27576;53.366;-1.498;2023-06-19T02:35:42;13.65;;;12.25;;
41897;SDS011;27576;53.366;-1.498;2023-06-19T02:38:09;11.57;;;10.43;;
41897;SDS011;27576;53.366;-1.498;2023-06-19T02:40:35;11.18;;;9.82;;
41897;SDS011;27576;53.366;-1.498;2023-06-19T02:43:00;11.32;;;10.15;;
41897;SDS011;27576;53.366;-1.498;2023-06-19T02:45:25;12.57;;;10.52;;
41897;SDS011;27576;53.366;-1.498;2023-06-19T02:47:51;11.30;;;10.10;;
41897;SDS011;27576;53.366;-1.498;2023-06-19T02:50:17;13.05;;;11.63;;
41897;SDS011;27576;53.366;-1.498;2023-06-19T02:52:42;12.05;;;9.77;;
41897;SDS011;27576;53.366;-1.498;2023-06-19T02:55:08;9.65;;;8.15;;
41897;SDS011;27576;53.366;-1.498;2023-06-19T02:57:33;9.40;;;8.45;;
41897;SDS011;27576;53.366;-1.498;2023-06-19T02:59:59;11.32;;;10.10;;
41897;SDS011;27576;53.366;-1.498;2023-06-19T03:02:24;9.55;;;8.43;;
41897;SDS011;27576;53.366;-1.498;2023-06-19T03:04:50;10.02;;;8.52;;
41897;SDS011;27576;53.366;-1.498;2023-06-19T03:07:15;11.43;;;10.07;;
41897;SDS011;27576;53.366;-1.498;2023-06-19T03:09:41;10.05;;;9.05;;
41897;SDS011;27576;53.366;-1.498;2023-06-19T03:12:07;9.75;;;8.85;;
41897;SDS011;27576;53.366;-1.498;2023-06-19T03:14:33;9.90;;;8.50;;
41897;SDS011;27576;53.366;-1.498;2023-06-19T03:16:58;12.57;;;9.90;;
41897;SDS011;27576;53.366;-1.498;2023-06-19T03:19:23;11.23;;;10.13;;
41897;SDS011;27576;53.366;-1.498;2023-06-19T03:21:49;11.25;;;9.73;;
41897;SDS011;27576;53.366;-1.498;2023-06-19T03:24:14;10.57;;;9.38;;
41897;SDS011;27576;53.366;-1.498;2023-06-19T03:26:39;9.73;;;8.75;;
41897;SDS011;27576;53.366;-1.498;2023-06-19T03:29:06;10.88;;;8.95;;
41897;SDS011;27576;53.366;-1.498;2023-06-19T03:31:31;10.57;;;9.48;;
41897;SDS011;27576;53.366;-1.498;2023-06-19T03:33:56;10.77;;;9.65;;
41897;SDS011;27576;53.366;-1.498;2023-06-19T03:36:22;12.05;;;10.05;;
41897;SDS011;27576;53.366;-1.498;2023-06-19T03:38:48;10.13;;;9.13;;
41897;SDS011;27576;53.366;-1.498;2023-06-19T03:41:13;11.02;;;9.63;;
41897;SDS011;27576;53.366;-1.498;2023-06-19T03:43:39;9.32;;;8.35;;
41897;SDS011;27576;53.366;-1.498;2023-06-19T03:46:04;10.82;;;8.70;;
41897;SDS011;27576;53.366;-1.498;2023-06-19T03:48:30;9.45;;;7.95;;
41897;SDS011;27576;53.366;-1.498;2023-06-19T03:50:55;12.60;;;10.20;;
41897;SDS011;27576;53.366;-1.498;2023-06-19T03:53:21;9.50;;;7.88;;
41897;SDS011;27576;53.366;-1.498;2023-06-19T03:55:46;9.77;;;8.77;;
41897;SDS011;27576;53.366;-1.498;2023-06-19T03:58:12;11.43;;;7.13;;
41897;SDS011;27576;53.366;-1.498;2023-06-19T04:00:37;8.27;;;7.10;;
41897;SDS011;27576;53.366;-1.498;2023-06-19T04:03:02;8.50;;;7.47;;
41897;SDS011;27576;53.366;-1.498;2023-06-19T04:05:28;10.02;;;7.65;;
41897;SDS011;27576;53.366;-1.498;2023-06-19T04:07:53;9.45;;;7.50;;
41897;SDS011;27576;53.366;-1.498;2023-06-19T04:10:18;8.00;;;6.82;;
41897;SDS011;27576;53.366;-1.498;2023-06-19T04:12:44;9.90;;;7.43;;
41897;SDS011;27576;53.366;-1.498;2023-06-19T04:15:10;6.82;;;6.10;;
41897;SDS011;27576;53.366;-1.498;2023-06-19T04:17:36;9.55;;;6.88;;
41897;SDS011;27576;53.366;-1.498;2023-06-19T04:20:02;10.77;;;7.35;;
41897;SDS011;27576;53.366;-1.498;2023-06-19T04:22:35;10.90;;;6.70;;
41897;SDS011;27576;53.366;-1.498;2023-06-19T04:25:01;9.27;;;7.05;;
41897;SDS011;27576;53.366;-1.498;2023-06-19T04:27:27;8.43;;;7.00;;
41897;SDS011;27576;53.366;-1.498;2023-06-19T04:29:52;7.10;;;6.32;;
41897;SDS011;27576;53.366;-1.498;2023-06-19T04:32:18;11.32;;;6.97;;
41897;SDS011;27576;53.366;-1.498;2023-06-19T04:34:43;7.63;;;6.53;;
41897;SDS011;27576;53.366;-1.498;2023-06-19T04:37:11;10.23;;;8.02;;
41897;SDS011;27576;53.366;-1.498;2023-06-19T04:39:36;8.48;;;7.53;;
41897;SDS011;27576;53.366;-1.498;2023-06-19T04:42:01;9.77;;;7.28;;
41897;SDS011;27576;53.366;-1.498;2023-06-19T04:44:27;11.10;;;7.70;;
41897;SDS011;27576;53.366;-1.498;2023-06-19T04:46:52;9.13;;;7.63;;
41897;SDS011;27576;53.366;-1.498;2023-06-19T04:49:25;8.43;;;7.53;;
41897;SDS011;27576;53.366;-1.498;2023-06-19T04:51:51;9.60;;;8.60;;
41897;SDS011;27576;53.366;-1.498;2023-06-19T04:54:16;11.35;;;8.50;;
41897;SDS011;27576;53.366;-1.498;2023-06-19T04:56:41;9.25;;;8.20;;
41897;SDS011;27576;53.366;-1.498;2023-06-19T04:59:07;14.05;;;9.05;;
41897;SDS011;27576;53.366;-1.498;2023-06-19T05:01:32;13.90;;;8.88;;
41897;SDS011;27576;53.366;-1.498;2023-06-19T05:03:57;8.77;;;7.47;;
41897;SDS011;27576;53.366;-1.498;2023-06-19T05:06:24;8.63;;;7.60;;
41897;SDS011;27576;53.366;-1.498;2023-06-19T05:08:50;9.35;;;8.35;;
41897;SDS011;27576;53.366;-1.498;2023-06-19T05:11:17;8.93;;;8.02;;
41897;SDS011;27576;53.366;-1.498;2023-06-19T05:13:43;10.30;;;9.20;;
41897;SDS011;27576;53.366;-1.498;2023-06-19T05:16:08;10.30;;;8.52;;
41897;SDS011;27576;53.366;-1.498;2023-06-19T05:18:34;10.60;;;7.85;;
41897;SDS011;27576;53.366;-1.498;2023-06-19T05:21:00;10.10;;;9.18;;
41897;SDS011;27576;53.366;-1.498;2023-06-19T05:23:25;10.88;;;8.18;;
41897;SDS011;27576;53.366;-1.498;2023-06-19T05:25:50;10.40;;;9.35;;
41897;SDS011;27576;53.366;-1.498;2023-06-19T05:28:16;8.80;;;7.90;;
41897;SDS011;27576;53.366;-1.498;2023-06-19T05:30:41;12.35;;;8.95;;
41897;SDS011;27576;53.366;-1.498;2023-06-19T05:33:07;12.52;;;9.50;;
41897;SDS011;27576;53.366;-1.498;2023-06-19T05:35:32;11.27;;;9.25;;
41897;SDS011;27576;53.366;-1.498;2023-06-19T05:37:58;11.65;;;9.73;;
41897;SDS011;27576;53.366;-1.498;2023-06-19T05:40:23;10.68;;;9.57;;
41897;SDS011;27576;53.366;-1.498;2023-06-19T05:42:48;13.25;;;10.82;;
41897;SDS011;27576;53.366;-1.498;2023-06-19T05:45:14;12.52;;;10.10;;
41897;SDS011;27576;53.366;-1.498;2023-06-19T05:47:39;10.73;;;9.43;;
41897;SDS011;27576;53.366;-1.498;2023-06-19T05:50:04;10.77;;;8.75;;
41897;SDS011;27576;53.366;-1.498;2023-06-19T05:52:30;10.30;;;8.82;;
41897;SDS011;27576;53.366;-1.498;2023-06-19T05:54:55;11.95;;;8.35;;
41897;SDS011;27576;53.366;-1.498;2023-06-19T05:57:23;8.75;;;7.47;;
41897;SDS011;27576;53.366;-1.498;2023-06-19T05:59:48;10.77;;;8.75;;
41897;SDS011;27576;53.366;-1.498;2023-06-19T06:02:14;9.63;;;8.25;;
41897;SDS011;27576;53.366;-1.498;2023-06-19T06:04:40;9.38;;;8.38;;
41897;SDS011;27576;53.366;-1.498;2023-06-19T06:07:05;12.07;;;9.00;;
41897;SDS011;27576;53.366;-1.498;2023-06-19T06:09:31;10.35;;;8.20;;
41897;SDS011;27576;53.366;-1.498;2023-06-19T06:11:58;9.02;;;8.00;;
41897;SDS011;27576;53.366;-1.498;2023-06-19T06:14:23;9.95;;;7.65;;
41897;SDS011;27576;53.366;-1.498;2023-06-19T06:16:49;12.15;;;8.85;;
41897;SDS011;27576;53.366;-1.498;2023-06-19T06:19:14;11.38;;;8.25;;
41897;SDS011;27576;53.366;-1.498;2023-06-19T06:21:40;10.57;;;8.30;;
41897;SDS011;27576;53.366;-1.498;2023-06-19T06:24:06;8.70;;;7.80;;
41897;SDS011;27576;53.366;-1.498;2023-06-19T06:26:31;10.23;;;8.05;;
41897;SDS011;27576;53.366;-1.498;2023-06-19T06:28:57;7.90;;;7.10;;
41897;SDS011;27576;53.366;-1.498;2023-06-19T06:31:22;8.68;;;7.75;;
41897;SDS011;27576;53.366;-1.498;2023-06-19T06:33:48;9.60;;;7.63;;
41897;SDS011;27576;53.366;-1.498;2023-06-19T06:36:17;8.45;;;7.60;;
41897;SDS011;27576;53.366;-1.498;2023-06-19T06:38:43;8.95;;;7.40;;
41897;SDS011;27576;53.366;-1.498;2023-06-19T06:41:09;8.25;;;6.93;;
41897;SDS011;27576;53.366;-1.498;2023-06-19T06:43:34;7.18;;;6.43;;
41897;SDS011;27576;53.366;-1.498;2023-06-19T06:46:00;10.98;;;6.95;;
41897;SDS011;27576;53.366;-1.498;2023-06-19T06:48:25;11.23;;;7.97;;
41897;SDS011;27576;53.366;-1.498;2023-06-19T06:50:50;11.90;;;7.25;;
41897;SDS011;27576;53.366;-1.498;2023-06-19T06:53:23;7.82;;;6.75;;
41897;SDS011;27576;53.366;-1.498;2023-06-19T06:55:50;12.63;;;7.43;;
41897;SDS011;27576;53.366;-1.498;2023-06-19T06:58:15;9.68;;;7.95;;
41897;SDS011;27576;53.366;-1.498;2023-06-19T07:00:42;15.38;;;8.30;;
41897;SDS011;27576;53.366;-1.498;2023-06-19T07:03:08;16.17;;;8.02;;
41897;SDS011;27576;53.366;-1.498;2023-06-19T07:05:33;10.98;;;7.70;;
41897;SDS011;27576;53.366;-1.498;2023-06-19T07:07:58;8.73;;;6.80;;
41897;SDS011;27576;53.366;-1.498;2023-06-19T07:10:24;12.15;;;7.55;;
41897;SDS011;27576;53.366;-1.498;2023-06-19T07:12:49;9.38;;;7.07;;
41897;SDS011;27576;53.366;-1.498;2023-06-19T07:15:16;8.07;;;6.47;;
41897;SDS011;27576;53.366;-1.498;2023-06-19T07:17:41;10.85;;;7.57;;
41897;SDS011;27576;53.366;-1.498;2023-06-19T07:20:07;12.05;;;7.57;;
41897;SDS011;27576;53.366;-1.498;2023-06-19T07:22:33;12.07;;;7.22;;
41897;SDS011;27576;53.366;-1.498;2023-06-19T07:24:58;9.77;;;6.90;;
41897;SDS011;27576;53.366;-1.498;2023-06-19T07:27:23;11.95;;;6.68;;
41897;SDS011;27576;53.366;-1.498;2023-06-19T07:29:52;10.00;;;6.40;;
41897;SDS011;27576;53.366;-1.498;2023-06-19T07:32:18;16.02;;;7.10;;
41897;SDS011;27576;53.366;-1.498;2023-06-19T07:34:43;12.73;;;7.03;;
41897;SDS011;27576;53.366;-1.498;2023-06-19T07:37:09;8.50;;;6.50;;
41897;SDS011;27576;53.366;-1.498;2023-06-19T07:39:34;15.00;;;5.93;;
41897;SDS011;27576;53.366;-1.498;2023-06-19T07:41:59;11.25;;;6.25;;
41897;SDS011;27576;53.366;-1.498;2023-06-19T07:44:25;10.73;;;6.00;;
41897;SDS011;27576;53.366;-1.498;2023-06-19T07:46:50;13.10;;;6.55;;
41897;SDS011;27576;53.366;-1.498;2023-06-19T07:49:15;9.82;;;5.82;;
41897;SDS011;27576;53.366;-1.498;2023-06-19T07:51:41;11.80;;;6.63;;
41897;SDS011;27576;53.366;-1.498;2023-06-19T07:54:06;8.27;;;5.68;;
41897;SDS011;27576;53.366;-1.498;2023-06-19T07:56:32;9.30;;;6.10;;
41897;SDS011;27576;53.366;-1.498;2023-06-19T07:58:58;8.20;;;5.57;;
41897;SDS011;27576;53.366;-1.498;2023-06-19T08:01:23;11.88;;;5.68;;
41897;SDS011;27576;53.366;-1.498;2023-06-19T08:03:49;11.68;;;6.18;;
41897;SDS011;27576;53.366;-1.498;2023-06-19T08:06:14;11.50;;;6.35;;
41897;SDS011;27576;53.366;-1.498;2023-06-19T08:08:39;9.27;;;6.30;;
41897;SDS011;27576;53.366;-1.498;2023-06-19T08:11:05;9.82;;;6.03;;
41897;SDS011;27576;53.366;-1.498;2023-06-19T08:13:30;11.32;;;6.18;;
41897;SDS011;27576;53.366;-1.498;2023-06-19T08:15:55;8.27;;;5.70;;
41897;SDS011;27576;53.366;-1.498;2023-06-19T08:18:21;11.38;;;6.45;;
41897;SDS011;27576;53.366;-1.498;2023-06-19T08:20:46;11.15;;;6.28;;
41897;SDS011;27576;53.366;-1.498;2023-06-19T08:23:11;8.48;;;5.97;;
41897;SDS011;27576;53.366;-1.498;2023-06-19T08:25:37;10.63;;;5.82;;
41897;SDS011;27576;53.366;-1.498;2023-06-19T08:28:02;10.43;;;5.07;;
41897;SDS011;27576;53.366;-1.498;2023-06-19T08:30:27;7.82;;;5.57;;
41897;SDS011;27576;53.366;-1.498;2023-06-19T08:32:54;8.02;;;5.50;;
41897;SDS011;27576;53.366;-1.498;2023-06-19T08:35:19;9.65;;;5.60;;
41897;SDS011;27576;53.366;-1.498;2023-06-19T08:37:45;7.88;;;5.30;;
41897;SDS011;27576;53.366;-1.498;2023-06-19T08:40:11;7.75;;;5.93;;
41897;SDS011;27576;53.366;-1.498;2023-06-19T08:42:37;7.20;;;4.95;;
41897;SDS011;27576;53.366;-1.498;2023-06-19T08:45:04;9.65;;;5.50;;
41897;SDS011;27576;53.366;-1.498;2023-06-19T08:47:31;13.77;;;5.72;;
41897;SDS011;27576;53.366;-1.498;2023-06-19T08:49:58;14.13;;;6.28;;
41897;SDS011;27576;53.366;-1.498;2023-06-19T08:52:24;24.05;;;8.65;;
41897;SDS011;27576;53.366;-1.498;2023-06-19T08:54:49;16.88;;;7.00;;
41897;SDS011;27576;53.366;-1.498;2023-06-19T08:57:14;13.95;;;6.47;;
41897;SDS011;27576;53.366;-1.498;2023-06-19T08:59:41;14.82;;;6.35;;
41897;SDS011;27576;53.366;-1.498;2023-06-19T09:02:14;7.82;;;5.88;;
41897;SDS011;27576;53.366;-1.498;2023-06-19T09:04:39;14.05;;;6.00;;
41897;SDS011;27576;53.366;-1.498;2023-06-19T09:07:07;15.35;;;5.95;;
41897;SDS011;27576;53.366;-1.498;2023-06-19T09:09:33;10.32;;;5.50;;
41897;SDS011;27576;53.366;-1.498;2023-06-19T09:12:05;8.20;;;4.95;;
41897;SDS011;27576;53.366;-1.498;2023-06-19T09:14:42;5.40;;;4.38;;
41897;SDS011;27576;53.366;-1.498;2023-06-19T09:17:27;7.18;;;4.82;;
41897;SDS011;27576;53.366;-1.498;2023-06-19T09:19:53;6.07;;;4.30;;
41897;SDS011;27576;53.366;-1.498;2023-06-19T09:22:22;5.72;;;4.68;;
41897;SDS011;27576;53.366;-1.498;2023-06-19T09:24:47;8.02;;;4.28;;
41897;SDS011;27576;53.366;-1.498;2023-06-19T09:27:14;6.30;;;4.75;;
41897;SDS011;27576;53.366;-1.498;2023-06-19T09:29:43;5.22;;;4.50;;
41897;SDS011;27576;53.366;-1.498;2023-06-19T09:34:47;7.05;;;4.85;;
41897;SDS011;27576;53.366;-1.498;2023-06-19T09:37:16;6.25;;;4.40;;
41897;SDS011;27576;53.366;-1.498;2023-06-19T09:39:55;6.95;;;4.65;;
41897;SDS011;27576;53.366;-1.498;2023-06-19T09:42:32;6.03;;;4.82;;
41897;SDS011;27576;53.366;-1.498;2023-06-19T09:44:59;7.40;;;4.80;;
41897;SDS011;27576;53.366;-1.498;2023-06-19T09:47:29;5.18;;;4.30;;
41897;SDS011;27576;53.366;-1.498;2023-06-19T09:50:08;8.98;;;4.60;;
41897;SDS011;27576;53.366;-1.498;2023-06-19T09:52:36;4.75;;;3.90;;
41897;SDS011;27576;53.366;-1.498;2023-06-19T09:55:04;4.88;;;3.97;;
41897;SDS011;27576;53.366;-1.498;2023-06-19T09:57:31;6.13;;;3.55;;
41897;SDS011;27576;53.366;-1.498;2023-06-19T09:59:57;4.13;;;3.67;;
41897;SDS011;27576;53.366;-1.498;2023-06-19T10:02:25;5.80;;;3.55;;
41897;SDS011;27576;53.366;-1.498;2023-06-19T10:04:53;7.32;;;3.60;;
41897;SDS011;27576;53.366;-1.498;2023-06-19T10:07:42;5.28;;;3.70;;
41897;SDS011;27576;53.366;-1.498;2023-06-19T10:10:10;10.10;;;4.18;;
41897;SDS011;27576;53.366;-1.498;2023-06-19T10:12:41;6.28;;;3.80;;
41897;SDS011;27576;53.366;-1.498;2023-06-19T10:15:18;5.28;;;3.90;;
41897;SDS011;27576;53.366;-1.498;2023-06-19T10:17:46;6.40;;;3.95;;
41897;SDS011;27576;53.366;-1.498;2023-06-19T10:20:45;4.82;;;3.80;;
41897;SDS011;27576;53.366;-1.498;2023-06-19T10:25:43;4.82;;;3.40;;
41897;SDS011;27576;53.366;-1.498;2023-06-19T10:28:16;5.65;;;4.00;;
41897;SDS011;27576;53.366;-1.498;2023-06-19T10:30:51;8.43;;;4.15;;
41897;SDS011;27576;53.366;-1.498;2023-06-19T10:33:28;8.15;;;4.25;;
41897;SDS011;27576;53.366;-1.498;2023-06-19T10:35:57;6.20;;;4.30;;
41897;SDS011;27576;53.366;-1.498;2023-06-19T10:38:24;6.88;;;4.32;;
41897;SDS011;27576;53.366;-1.498;2023-06-19T10:40:51;6.78;;;4.47;;
41897;SDS011;27576;53.366;-1.498;2023-06-19T10:43:20;5.95;;;4.43;;
41897;SDS011;27576;53.366;-1.498;2023-06-19T10:45:47;8.50;;;4.32;;
41897;SDS011;27576;53.366;-1.498;2023-06-19T10:48:17;5.93;;;4.03;;
41897;SDS011;27576;53.366;-1.498;2023-06-19T10:50:48;5.95;;;4.20;;
41897;SDS011;27576;53.366;-1.498;2023-06-19T10:53:32;7.45;;;4.53;;
41897;SDS011;27576;53.366;-1.498;2023-06-19T10:55:58;6.22;;;3.95;;
41897;SDS011;27576;53.366;-1.498;2023-06-19T10:58:25;5.93;;;4.35;;
41897;SDS011;27576;53.366;-1.498;2023-06-19T11:00:51;7.90;;;4.05;;
41897;SDS011;27576;53.366;-1.498;2023-06-19T11:03:17;6.60;;;4.05;;
41897;SDS011;27576;53.366;-1.498;2023-06-19T11:05:44;6.38;;;4.22;;
41897;SDS011;27576;53.366;-1.498;2023-06-19T11:08:11;5.22;;;4.03;;
41897;SDS011;27576;53.366;-1.498;2023-06-19T11:10:43;5.45;;;4.13;;
41897;SDS011;27576;53.366;-1.498;2023-06-19T11:13:12;5.28;;;3.40;;
41897;SDS011;27576;53.366;-1.498;2023-06-19T11:15:39;5.85;;;3.47;;
41897;SDS011;27576;53.366;-1.498;2023-06-19T11:18:04;4.93;;;3.13;;
41897;SDS011;27576;53.366;-1.498;2023-06-19T11:20:30;6.78;;;3.65;;
41897;SDS011;27576;53.366;-1.498;2023-06-19T11:22:59;5.25;;;3.53;;
41897;SDS011;27576;53.366;-1.498;2023-06-19T11:25:35;5.32;;;3.70;;
41897;SDS011;27576;53.366;-1.498;2023-06-19T11:28:01;4.47;;;2.78;;
41897;SDS011;27576;53.366;-1.498;2023-06-19T11:30:31;7.10;;;3.67;;
41897;SDS011;27576;53.366;-1.498;2023-06-19T11:32:57;5.13;;;3.10;;
41897;SDS011;27576;53.366;-1.498;2023-06-19T11:35:23;5.88;;;3.35;;
41897;SDS011;27576;53.366;-1.498;2023-06-19T11:37:48;5.55;;;3.47;;
41897;SDS011;27576;53.366;-1.498;2023-06-19T11:40:14;6.57;;;3.60;;
41897;SDS011;27576;53.366;-1.498;2023-06-19T11:42:51;5.43;;;3.10;;
41897;SDS011;27576;53.366;-1.498;2023-06-19T11:45:18;5.78;;;4.15;;
41897;SDS011;27576;53.366;-1.498;2023-06-19T11:47:44;4.35;;;3.28;;
41897;SDS011;27576;53.366;-1.498;2023-06-19T11:50:11;4.10;;;3.45;;
41897;SDS011;27576;53.366;-1.498;2023-06-19T11:52:37;6.22;;;4.18;;
41897;SDS011;27576;53.366;-1.498;2023-06-19T11:55:02;6.65;;;4.30;;
41897;SDS011;27576;53.366;-1.498;2023-06-19T11:57:27;5.00;;;4.18;;
41897;SDS011;27576;53.366;-1.498;2023-06-19T11:59:53;7.93;;;3.65;;
41897;SDS011;27576;53.366;-1.498;2023-06-19T12:02:18;4.35;;;3.25;;
41897;SDS011;27576;53.366;-1.498;2023-06-19T12:04:43;6.75;;;3.90;;
41897;SDS011;27576;53.366;-1.498;2023-06-19T12:07:09;5.10;;;3.72;;
41897;SDS011;27576;53.366;-1.498;2023-06-19T12:09:34;4.25;;;3.47;;
41897;SDS011;27576;53.366;-1.498;2023-06-19T12:12:00;5.13;;;3.28;;
41897;SDS011;27576;53.366;-1.498;2023-06-19T12:14:26;4.10;;;2.95;;
41897;SDS011;27576;53.366;-1.498;2023-06-19T12:16:51;4.78;;;3.50;;
41897;SDS011;27576;53.366;-1.498;2023-06-19T12:19:17;6.30;;;3.58;;
41897;SDS011;27576;53.366;-1.498;2023-06-19T12:21:43;7.13;;;3.80;;
41897;SDS011;27576;53.366;-1.498;2023-06-19T12:24:08;5.68;;;3.65;;
41897;SDS011;27576;53.366;-1.498;2023-06-19T12:26:34;6.00;;;4.32;;
41897;SDS011;27576;53.366;-1.498;2023-06-19T12:29:02;5.82;;;3.88;;
41897;SDS011;27576;53.366;-1.498;2023-06-19T12:31:28;7.18;;;4.22;;
41897;SDS011;27576;53.366;-1.498;2023-06-19T12:33:54;6.97;;;4.25;;
41897;SDS011;27576;53.366;-1.498;2023-06-19T12:36:19;8.93;;;4.32;;
41897;SDS011;27576;53.366;-1.498;2023-06-19T12:38:45;6.40;;;4.30;;
41897;SDS011;27576;53.366;-1.498;2023-06-19T12:41:12;7.88;;;5.00;;
41897;SDS011;27576;53.366;-1.498;2023-06-19T12:43:37;6.45;;;4.13;;
41897;SDS011;27576;53.366;-1.498;2023-06-19T12:46:03;6.43;;;3.95;;
41897;SDS011;27576;53.366;-1.498;2023-06-19T12:48:28;7.78;;;4.50;;
41897;SDS011;27576;53.366;-1.498;2023-06-19T12:50:53;5.60;;;4.85;;
41897;SDS011;27576;53.366;-1.498;2023-06-19T12:53:19;5.47;;;4.38;;
41897;SDS011;27576;53.366;-1.498;2023-06-19T12:55:44;5.80;;;4.30;;
41897;SDS011;27576;53.366;-1.498;2023-06-19T12:58:10;9.95;;;5.05;;
41897;SDS011;27576;53.366;-1.498;2023-06-19T13:00:36;6.97;;;4.20;;
41897;SDS011;27576;53.366;-1.498;2023-06-19T13:03:02;8.57;;;4.40;;
41897;SDS011;27576;53.366;-1.498;2023-06-19T13:05:27;6.90;;;5.05;;
41897;SDS011;27576;53.366;-1.498;2023-06-19T13:07:53;6.13;;;5.07;;
41897;SDS011;27576;53.366;-1.498;2023-06-19T13:10:18;6.70;;;4.78;;
41897;SDS011;27576;53.366;-1.498;2023-06-19T13:12:43;6.82;;;4.22;;
41897;SDS011;27576;53.366;-1.498;2023-06-19T13:15:09;5.32;;;4.13;;
41897;SDS011;27576;53.366;-1.498;2023-06-19T13:17:34;7.90;;;5.30;;
41897;SDS011;27576;53.366;-1.498;2023-06-19T13:20:00;6.72;;;4.50;;
41897;SDS011;27576;53.366;-1.498;2023-06-19T13:22:25;5.88;;;4.70;;
41897;SDS011;27576;53.366;-1.498;2023-06-19T13:24:51;5.80;;;4.32;;
41897;SDS011;27576;53.366;-1.498;2023-06-19T13:27:16;6.25;;;5.30;;
41897;SDS011;27576;53.366;-1.498;2023-06-19T13:29:42;5.32;;;4.45;;
41897;SDS011;27576;53.366;-1.498;2023-06-19T13:32:07;5.47;;;4.22;;
41897;SDS011;27576;53.366;-1.498;2023-06-19T13:34:33;7.90;;;4.70;;
41897;SDS011;27576;53.366;-1.498;2023-06-19T13:36:58;10.07;;;4.60;;
41897;SDS011;27576;53.366;-1.498;2023-06-19T13:39:23;7.05;;;4.38;;
41897;SDS011;27576;53.366;-1.498;2023-06-19T13:41:49;8.10;;;4.40;;
41897;SDS011;27576;53.366;-1.498;2023-06-19T13:44:14;5.68;;;3.83;;
41897;SDS011;27576;53.366;-1.498;2023-06-19T13:46:40;7.47;;;4.97;;
41897;SDS011;27576;53.366;-1.498;2023-06-19T13:49:05;4.45;;;3.58;;
41897;SDS011;27576;53.366;-1.498;2023-06-19T13:51:30;7.07;;;3.90;;
41897;SDS011;27576;53.366;-1.498;2023-06-19T13:53:56;5.30;;;3.97;;
41897;SDS011;27576;53.366;-1.498;2023-06-19T13:56:21;7.10;;;3.60;;
41897;SDS011;27576;53.366;-1.498;2023-06-19T13:58:48;6.22;;;4.00;;
41897;SDS011;27576;53.366;-1.498;2023-06-19T14:01:14;6.45;;;4.00;;
41897;SDS011;27576;53.366;-1.498;2023-06-19T14:03:39;4.97;;;3.65;;
41897;SDS011;27576;53.366;-1.498;2023-06-19T14:06:05;4.80;;;3.60;;
41897;SDS011;27576;53.366;-1.498;2023-06-19T14:08:30;4.35;;;3.50;;
41897;SDS011;27576;53.366;-1.498;2023-06-19T14:10:56;6.00;;;3.50;;
41897;SDS011;27576;53.366;-1.498;2023-06-19T14:13:22;5.63;;;3.67;;
41897;SDS011;27576;53.366;-1.498;2023-06-19T14:15:47;5.03;;;3.97;;
41897;SDS011;27576;53.366;-1.498;2023-06-19T14:18:13;5.70;;;3.63;;
41897;SDS011;27576;53.366;-1.498;2023-06-19T14:20:39;4.88;;;3.22;;
41897;SDS011;27576;53.366;-1.498;2023-06-19T14:23:06;6.55;;;3.50;;
41897;SDS011;27576;53.366;-1.498;2023-06-19T14:25:31;4.05;;;3.58;;
41897;SDS011;27576;53.366;-1.498;2023-06-19T14:27:57;4.78;;;3.10;;
41897;SDS011;27576;53.366;-1.498;2023-06-19T14:30:22;6.95;;;3.65;;
41897;SDS011;27576;53.366;-1.498;2023-06-19T14:32:47;4.78;;;3.33;;
41897;SDS011;27576;53.366;-1.498;2023-06-19T14:35:13;5.15;;;3.45;;